createdAt,value
2016-07-28T00:00:48.660Z,15.9
2016-07-28T00:01:47.948Z,15.84
2016-07-28T00:02:47.944Z,15.88
2016-07-28T00:03:48.672Z,15.84
2016-07-28T00:04:47.949Z,15.83
2016-07-28T00:05:48.667Z,15.91
2016-07-28T00:06:48.669Z,15.84
2016-07-28T00:07:47.951Z,15.88
2016-07-28T00:08:47.233Z,15.88
2016-07-28T00:09:47.960Z,15.88
2016-07-28T00:10:48.672Z,15.78
2016-07-28T00:11:47.966Z,15.83
2016-07-28T00:12:47.244Z,15.83
2016-07-28T00:13:48.680Z,15.8
2016-07-28T00:14:48.676Z,15.73
2016-07-28T00:15:47.959Z,15.81
2016-07-28T00:16:47.960Z,15.73
2016-07-28T00:17:48.684Z,15.76
2016-07-28T00:18:47.244Z,15.75
2016-07-28T00:19:47.960Z,15.83
2016-07-28T00:20:48.680Z,15.83
2016-07-28T00:21:48.684Z,15.8
2016-07-28T00:22:47.977Z,15.8
2016-07-28T00:23:47.248Z,15.8
2016-07-28T00:24:48.684Z,15.83
2016-07-28T00:25:47.969Z,15.87
2016-07-28T00:26:47.977Z,15.91
2016-07-28T00:27:48.704Z,15.85
2016-07-28T00:28:48.696Z,15.83
2016-07-28T00:29:47.989Z,15.85
2016-07-28T00:30:48.700Z,15.8
2016-07-28T00:31:47.976Z,15.78
2016-07-28T00:32:47.989Z,15.76
2016-07-28T00:33:48.704Z,15.81
2016-07-28T00:34:48.701Z,15.76
2016-07-28T00:35:48.692Z,15.65
2016-07-28T00:36:47.993Z,15.67
2016-07-28T00:37:47.981Z,15.63
2016-07-28T00:38:48.713Z,15.72
2016-07-28T00:39:47.976Z,15.73
2016-07-28T00:40:48.704Z,15.69
2016-07-28T00:41:47.269Z,15.66
2016-07-28T00:42:48.721Z,15.57
2016-07-28T00:43:48.708Z,15.63
2016-07-28T00:44:48.709Z,15.59
2016-07-28T00:45:48.706Z,15.54
2016-07-28T00:46:48.721Z,15.54
2016-07-28T00:47:48.713Z,15.51
2016-07-28T00:48:48.001Z,15.5
2016-07-28T00:49:47.997Z,15.5
2016-07-28T00:50:48.722Z,15.45
2016-07-28T00:51:48.717Z,15.43
2016-07-28T00:52:48.725Z,15.36
2016-07-28T00:53:47.286Z,15.32
2016-07-28T00:54:48.722Z,15.43
2016-07-28T00:55:48.001Z,15.27
2016-07-28T00:56:48.001Z,15.35
2016-07-28T00:57:48.730Z,15.26
2016-07-28T00:58:48.001Z,15.27
2016-07-28T00:59:48.714Z,15.27
2016-07-28T01:00:47.293Z,15.25
2016-07-28T01:01:47.998Z,15.26
2016-07-28T01:02:48.005Z,15.1
2016-07-28T01:03:48.739Z,15.1
2016-07-28T01:04:48.726Z,15.15
2016-07-28T01:05:48.010Z,15.14
2016-07-28T01:06:48.738Z,15.11
2016-07-28T01:07:48.018Z,15.07
2016-07-28T01:08:48.735Z,15.04
2016-07-28T01:09:48.738Z,15
2016-07-28T01:10:47.298Z,15.05
2016-07-28T01:11:48.735Z,15.07
2016-07-28T01:12:48.015Z,15
2016-07-28T01:13:48.738Z,15.1
2016-07-28T01:14:48.019Z,14.99
2016-07-28T01:15:48.022Z,14.99
2016-07-28T01:16:48.747Z,15
2016-07-28T01:17:47.303Z,15.02
2016-07-28T01:18:48.026Z,15.1
2016-07-28T01:19:48.743Z,15.1
2016-07-28T01:20:48.022Z,15.08
2016-07-28T01:21:48.750Z,15.04
2016-07-28T01:22:48.035Z,15.02
2016-07-28T01:23:48.734Z,14.97
2016-07-28T01:24:48.035Z,14.97
2016-07-28T01:25:48.038Z,14.86
2016-07-28T01:26:48.747Z,15.02
2016-07-28T01:27:48.746Z,14.96
2016-07-28T01:28:48.755Z,14.86
2016-07-28T01:29:48.759Z,14.87
2016-07-28T01:30:48.746Z,14.94
2016-07-28T01:31:48.035Z,14.92
2016-07-28T01:32:48.034Z,14.9
2016-07-28T01:33:48.038Z,14.86
2016-07-28T01:34:48.043Z,14.89
2016-07-28T01:35:48.042Z,14.93
2016-07-28T01:36:48.043Z,14.93
2016-07-28T01:37:48.759Z,14.86
2016-07-28T01:38:48.767Z,14.9
2016-07-28T01:39:48.762Z,14.82
2016-07-28T01:40:48.766Z,14.87
2016-07-28T01:41:48.762Z,14.79
2016-07-28T01:42:47.335Z,14.82
2016-07-28T01:43:48.771Z,14.86
2016-07-28T01:44:48.039Z,14.81
2016-07-28T01:45:48.883Z,14.86
2016-07-28T01:46:48.047Z,14.82
2016-07-28T01:47:48.051Z,14.85
2016-07-28T01:48:48.778Z,14.79
2016-07-28T01:49:48.770Z,14.7
2016-07-28T01:50:48.051Z,14.74
2016-07-28T01:51:48.770Z,14.81
2016-07-28T01:52:48.779Z,14.67
2016-07-28T01:53:48.775Z,14.73
2016-07-28T01:54:48.063Z,14.68
2016-07-28T01:55:48.059Z,14.61
2016-07-28T01:56:48.059Z,14.62
2016-07-28T01:57:48.771Z,14.67
2016-07-28T01:58:48.058Z,14.61
2016-07-28T01:59:48.780Z,14.53
2016-07-28T02:00:47.334Z,14.55
2016-07-28T02:01:48.771Z,14.63
2016-07-28T02:02:48.067Z,14.49
2016-07-28T02:03:48.063Z,14.59
2016-07-28T02:04:48.059Z,14.61
2016-07-28T02:05:48.774Z,14.52
2016-07-28T02:06:48.064Z,14.52
2016-07-28T02:07:48.775Z,14.63
2016-07-28T02:08:47.347Z,14.56
2016-07-28T02:09:48.795Z,14.61
2016-07-28T02:10:47.347Z,14.59
2016-07-28T02:11:48.067Z,14.55
2016-07-28T02:12:48.071Z,14.51
2016-07-28T02:13:48.798Z,14.44
2016-07-28T02:14:48.076Z,14.49
2016-07-28T02:15:48.791Z,14.44
2016-07-28T02:16:48.072Z,14.37
2016-07-28T02:17:47.350Z,14.36
2016-07-28T02:18:48.071Z,14.45
2016-07-28T02:19:48.794Z,14.48
2016-07-28T02:20:48.803Z,14.4
2016-07-28T02:21:48.799Z,14.45
2016-07-28T02:22:48.807Z,14.36
2016-07-28T02:23:48.072Z,14.44
2016-07-28T02:24:48.079Z,14.44
2016-07-28T02:25:48.088Z,14.4
2016-07-28T02:26:48.799Z,14.49
2016-07-28T02:27:48.084Z,14.36
2016-07-28T02:28:48.088Z,14.26
2016-07-28T02:29:48.084Z,14.33
2016-07-28T02:30:48.135Z,14.31
2016-07-28T02:31:48.091Z,14.26
2016-07-28T02:32:48.087Z,14.36
2016-07-28T02:33:48.076Z,14.3
2016-07-28T02:34:48.804Z,14.33
2016-07-28T02:35:48.799Z,14.28
2016-07-28T02:36:48.812Z,14.36
2016-07-28T02:37:48.808Z,14.37
2016-07-28T02:38:48.805Z,14.31
2016-07-28T02:39:48.803Z,14.3
2016-07-28T02:40:48.812Z,14.25
2016-07-28T02:41:48.349Z,14.38
2016-07-28T02:42:48.800Z,14.28
2016-07-28T02:43:48.100Z,14.37
2016-07-28T02:44:47.376Z,14.26
2016-07-28T02:45:48.097Z,14.38
2016-07-28T02:46:54.036Z,14.28
2016-07-28T02:47:48.088Z,14.3
2016-07-28T02:48:48.100Z,14.25
2016-07-28T02:49:48.811Z,14.25
2016-07-28T02:50:48.097Z,14.23
2016-07-28T02:51:48.811Z,14.19
2016-07-28T02:52:48.101Z,14.19
2016-07-28T02:53:48.822Z,14.18
2016-07-28T02:54:48.834Z,14.15
2016-07-28T02:55:48.822Z,14.16
2016-07-28T02:57:47.381Z,14.13
2016-07-28T02:58:47.380Z,14.13
2016-07-28T02:59:48.818Z,14.11
2016-07-28T03:00:48.829Z,14.12
2016-07-28T03:01:48.825Z,14.11
2016-07-28T03:02:48.829Z,14.12
2016-07-28T03:03:48.817Z,14.15
2016-07-28T03:04:48.109Z,14.11
2016-07-28T03:05:48.100Z,14.13
2016-07-28T03:06:47.389Z,14.13
2016-07-28T03:07:47.389Z,14.08
2016-07-28T03:08:47.394Z,14.15
2016-07-28T03:09:48.826Z,14.13
2016-07-28T03:10:48.828Z,14.12
2016-07-28T03:12:48.109Z,14.08
2016-07-28T03:13:48.837Z,14.07
2016-07-28T03:14:48.113Z,14.16
2016-07-28T03:15:48.122Z,14.08
2016-07-28T03:16:48.115Z,14.07
2016-07-28T03:17:48.841Z,14.07
2016-07-28T03:18:48.838Z,14.04
2016-07-28T03:19:48.833Z,14.05
2016-07-28T03:20:48.845Z,14.11
2016-07-28T03:21:47.401Z,14.05
2016-07-28T03:22:48.325Z,14.18
2016-07-28T03:23:48.838Z,14.15
2016-07-28T03:24:48.842Z,14.23
2016-07-28T03:25:48.845Z,14.33
2016-07-28T03:26:48.134Z,14.28
2016-07-28T03:27:48.138Z,14.37
2016-07-28T03:28:48.120Z,14.4
2016-07-28T03:29:48.846Z,14.45
2016-07-28T03:30:48.838Z,14.48
2016-07-28T03:31:48.846Z,14.49
2016-07-28T03:32:48.118Z,14.43
2016-07-28T03:33:48.850Z,14.45
2016-07-28T03:34:48.130Z,14.44
2016-07-28T03:35:48.838Z,14.43
2016-07-28T03:36:48.134Z,14.43
2016-07-28T03:37:47.406Z,14.37
2016-07-28T03:38:48.860Z,14.33
2016-07-28T03:39:48.838Z,14.38
2016-07-28T03:40:48.126Z,14.36
2016-07-28T03:41:48.127Z,14.3
2016-07-28T03:42:48.135Z,14.33
2016-07-28T03:43:48.850Z,14.38
2016-07-28T03:44:48.127Z,14.25
2016-07-28T03:45:48.954Z,14.25
2016-07-28T03:46:48.135Z,14.37
2016-07-28T03:47:48.849Z,14.19
2016-07-28T03:48:48.855Z,14.37
2016-07-28T03:49:48.135Z,14.36
2016-07-28T03:50:48.847Z,14.23
2016-07-28T03:51:49.060Z,14.33
2016-07-28T03:52:48.135Z,14.37
2016-07-28T03:53:48.859Z,14.3
2016-07-28T03:54:48.139Z,14.37
2016-07-28T03:55:47.419Z,14.34
2016-07-28T03:56:48.856Z,14.36
2016-07-28T03:57:48.859Z,14.26
2016-07-28T03:58:48.136Z,14.37
2016-07-28T03:59:48.132Z,14.36
2016-07-28T04:00:48.142Z,14.36
2016-07-28T04:01:48.867Z,14.36
2016-07-28T04:02:48.866Z,14.4
2016-07-28T04:03:48.140Z,14.33
2016-07-28T04:04:48.143Z,14.34
2016-07-28T04:05:48.134Z,14.28
2016-07-28T04:06:48.135Z,14.45
2016-07-28T04:07:48.879Z,14.31
2016-07-28T04:08:48.863Z,14.31
2016-07-28T04:09:48.151Z,14.3
2016-07-28T04:10:48.147Z,14.38
2016-07-28T04:11:48.145Z,14.41
2016-07-28T04:12:48.143Z,14.31
2016-07-28T04:13:48.872Z,14.36
2016-07-28T04:14:48.886Z,14.45
2016-07-28T04:15:48.155Z,14.37
2016-07-28T04:16:48.157Z,14.4
2016-07-28T04:17:48.163Z,14.44
2016-07-28T04:18:48.868Z,14.38
2016-07-28T04:19:48.152Z,14.37
2016-07-28T04:20:48.872Z,14.41
2016-07-28T04:21:48.868Z,14.36
2016-07-28T04:22:48.152Z,14.36
2016-07-28T04:23:48.160Z,14.4
2016-07-28T04:24:48.869Z,14.4
2016-07-28T04:25:48.152Z,14.45
2016-07-28T04:26:48.877Z,14.45
2016-07-28T04:27:48.885Z,14.49
2016-07-28T04:28:47.437Z,14.52
2016-07-28T04:29:48.157Z,14.62
2016-07-28T04:30:48.873Z,14.68
2016-07-28T04:31:48.881Z,14.82
2016-07-28T04:32:48.153Z,14.87
2016-07-28T04:33:48.881Z,15.1
2016-07-28T04:34:48.160Z,15.47
2016-07-28T04:35:48.885Z,15.87
2016-07-28T04:36:48.164Z,16.21
2016-07-28T04:37:48.164Z,16.65
2016-07-28T04:38:48.893Z,16.73
2016-07-28T04:39:48.893Z,16.97
2016-07-28T04:40:48.889Z,17.22
2016-07-28T04:41:48.181Z,17.41
2016-07-28T04:42:48.890Z,17.68
2016-07-28T04:43:49.149Z,18
2016-07-28T04:44:48.889Z,18.3
2016-07-28T04:45:48.169Z,18.58
2016-07-28T04:46:48.888Z,18.85
2016-07-28T04:47:48.178Z,19.15
2016-07-28T04:48:48.178Z,19.34
2016-07-28T04:49:48.886Z,19.59
2016-07-28T04:50:48.186Z,19.72
2016-07-28T04:51:48.893Z,20.12
2016-07-28T04:52:48.905Z,20.3
2016-07-28T04:53:48.185Z,20.55
2016-07-28T04:54:48.197Z,20.74
2016-07-28T04:55:48.906Z,21.08
2016-07-28T04:56:48.193Z,21.38
2016-07-28T04:57:48.914Z,21.69
2016-07-28T04:58:48.909Z,21.75
2016-07-28T04:59:48.190Z,21.99
2016-07-28T05:00:48.193Z,22.3
2016-07-28T05:01:48.202Z,22.62
2016-07-28T05:02:48.199Z,22.84
2016-07-28T05:03:48.921Z,22.95
2016-07-28T05:04:48.205Z,23.25
2016-07-28T05:05:48.933Z,23.39
2016-07-28T05:06:48.201Z,23.47
2016-07-28T05:07:48.218Z,23.4
2016-07-28T05:08:48.206Z,23.21
2016-07-28T05:09:48.933Z,23.07
2016-07-28T05:10:48.934Z,22.77
2016-07-28T05:11:48.225Z,22.56
2016-07-28T05:12:48.223Z,22.38
2016-07-28T05:13:48.942Z,22.22
2016-07-28T05:14:48.958Z,21.97
2016-07-28T05:15:48.962Z,21.77
2016-07-28T05:16:48.233Z,21.41
2016-07-28T05:17:48.242Z,21.13
2016-07-28T05:18:48.962Z,20.98
2016-07-28T05:19:48.955Z,20.9
2016-07-28T05:20:48.962Z,20.74
2016-07-28T05:21:48.251Z,20.66
2016-07-28T05:22:48.966Z,20.55
2016-07-28T05:23:47.530Z,20.48
2016-07-28T05:24:48.246Z,20.32
2016-07-28T05:25:47.535Z,20.24
2016-07-28T05:26:48.987Z,20.18
2016-07-28T05:27:48.975Z,20.3
2016-07-28T05:28:48.979Z,20.64
2016-07-28T05:29:48.970Z,21.17
2016-07-28T05:30:48.979Z,21.62
2016-07-28T05:31:48.271Z,21.91
2016-07-28T05:32:48.271Z,22.3
2016-07-28T05:33:48.994Z,22.92
2016-07-28T05:34:48.998Z,23.42
2016-07-28T05:35:49.296Z,24.03
2016-07-28T05:36:48.991Z,24.84
2016-07-28T05:37:49.000Z,25.58
2016-07-28T05:38:48.279Z,26.08
2016-07-28T05:39:49.000Z,26.66
2016-07-28T05:40:49.013Z,27.25
2016-07-28T05:41:48.292Z,27.81
2016-07-28T05:42:48.284Z,28.22
2016-07-28T05:43:49.016Z,28.4
2016-07-28T05:44:49.008Z,28.72
2016-07-28T05:45:47.575Z,29.24
2016-07-28T05:46:49.020Z,29.47
2016-07-28T05:47:49.024Z,29.79
2016-07-28T05:48:49.020Z,29.87
2016-07-28T05:49:47.588Z,29.84
2016-07-28T05:50:48.305Z,29.9
2016-07-28T05:51:49.037Z,29.95
2016-07-28T05:52:49.028Z,29.95
2016-07-28T05:53:49.025Z,30.1
2016-07-28T05:54:47.592Z,30.2
2016-07-28T05:55:48.325Z,30.36
2016-07-28T05:56:49.040Z,30.61
2016-07-28T05:57:49.038Z,30.7
2016-07-28T05:58:48.324Z,30.85
2016-07-28T05:59:48.320Z,31.04
2016-07-28T06:00:49.048Z,31.25
2016-07-28T06:01:49.045Z,31.35
2016-07-28T06:02:49.043Z,31.52
2016-07-28T06:03:48.335Z,31.6
2016-07-28T06:04:49.053Z,31.5
2016-07-28T06:05:48.333Z,31.51
2016-07-28T06:06:49.057Z,31.55
2016-07-28T06:07:49.060Z,31.67
2016-07-28T06:08:48.336Z,31.67
2016-07-28T06:09:48.348Z,31.64
2016-07-28T06:10:48.345Z,31.51
2016-07-28T06:11:47.619Z,31.63
2016-07-28T06:12:49.077Z,31.33
2016-07-28T06:13:49.068Z,30.98
2016-07-28T06:14:49.081Z,30.88
2016-07-28T06:15:48.360Z,30.98
2016-07-28T06:16:48.364Z,31.18
2016-07-28T06:17:49.089Z,31.18
2016-07-28T06:18:48.365Z,31.39
2016-07-28T06:19:48.365Z,31.35
2016-07-28T06:20:49.089Z,31.22
2016-07-28T06:21:48.370Z,31.23
2016-07-28T06:22:48.364Z,31.47
2016-07-28T06:23:49.101Z,31.62
2016-07-28T06:24:49.102Z,32
2016-07-28T06:25:49.101Z,32.23
2016-07-28T06:26:48.385Z,32.04
2016-07-28T06:27:49.102Z,32.12
2016-07-28T06:28:47.666Z,32.27
2016-07-28T06:29:49.122Z,32.41
2016-07-28T06:30:49.098Z,32.37
2016-07-28T06:31:48.390Z,32.35
2016-07-28T06:32:49.106Z,32.45
2016-07-28T06:33:48.398Z,32.61
2016-07-28T06:34:47.674Z,32.86
2016-07-28T06:35:49.130Z,33.35
2016-07-28T06:36:49.122Z,33.87
2016-07-28T06:37:49.122Z,34.37
2016-07-28T06:38:49.122Z,35.03
2016-07-28T06:39:49.133Z,35.6
2016-07-28T06:40:49.130Z,35.81
2016-07-28T06:41:48.415Z,35.74
2016-07-28T06:42:48.415Z,35.76
2016-07-28T06:43:49.138Z,36.01
2016-07-28T06:44:49.138Z,36.16
2016-07-28T06:45:49.134Z,36.26
2016-07-28T06:46:49.151Z,36.13
2016-07-28T06:47:49.147Z,36.01
2016-07-28T06:48:48.431Z,35.78
2016-07-28T06:49:48.434Z,35.52
2016-07-28T06:50:48.426Z,35.52
2016-07-28T06:51:48.443Z,35.38
2016-07-28T06:52:49.155Z,35.27
2016-07-28T06:53:49.151Z,35.35
2016-07-28T06:54:49.167Z,35.26
2016-07-28T06:55:49.154Z,35.35
2016-07-28T06:56:49.163Z,35.31
2016-07-28T06:57:48.491Z,35.54
2016-07-28T06:58:49.163Z,35.72
2016-07-28T06:59:49.175Z,35.82
2016-07-28T07:00:48.459Z,36
2016-07-28T07:01:47.739Z,36.25
2016-07-28T07:22:13.604Z,39.15
2016-07-28T07:23:14.311Z,38.7
2016-07-28T07:24:14.327Z,38.09
2016-07-28T07:25:13.596Z,37.28
2016-07-28T07:26:14.316Z,36.65
2016-07-28T07:27:13.608Z,36.18
2016-07-28T07:28:14.323Z,35.91
2016-07-28T07:29:13.659Z,35.78
2016-07-28T07:30:13.610Z,35.82
2016-07-28T07:31:13.624Z,36.14
2016-07-28T07:32:14.348Z,36.5
2016-07-28T07:33:13.627Z,37.04
2016-07-28T07:34:14.348Z,37.56
2016-07-28T07:35:14.343Z,37.73
2016-07-28T07:36:13.636Z,37.91
2016-07-28T07:37:14.355Z,37.79
2016-07-28T07:38:14.347Z,37.63
2016-07-28T07:39:13.647Z,37.33
2016-07-28T07:40:14.367Z,36.78
2016-07-28T07:41:13.639Z,36.36
2016-07-28T07:42:13.647Z,35.78
2016-07-28T07:43:13.648Z,35.15
2016-07-28T07:44:13.644Z,34.6
2016-07-28T07:45:13.656Z,34.37
2016-07-28T07:46:14.371Z,34.32
2016-07-28T07:47:13.647Z,34.48
2016-07-28T07:48:12.935Z,34.88
2016-07-28T07:49:14.375Z,35.56
2016-07-28T07:50:13.663Z,36.43
2016-07-28T07:51:14.384Z,37.16
2016-07-28T07:52:13.668Z,37.82
2016-07-28T07:53:14.396Z,38.12
2016-07-28T07:54:12.954Z,38.09
2016-07-28T07:55:13.676Z,37.79
2016-07-28T07:56:14.387Z,37.33
2016-07-28T07:57:14.404Z,36.82
2016-07-28T07:58:13.678Z,36.13
2016-07-28T07:59:14.403Z,35.39
2016-07-28T08:00:14.406Z,34.81
2016-07-28T08:01:13.683Z,34.26
2016-07-28T08:02:12.972Z,33.87
2016-07-28T08:03:13.692Z,33.53
2016-07-28T08:04:14.423Z,33.28
2016-07-28T08:05:13.701Z,33.05
2016-07-28T08:06:13.703Z,33.19
2016-07-28T08:07:13.703Z,33.42
2016-07-28T08:08:14.443Z,33.89
2016-07-28T08:09:13.706Z,34.32
2016-07-28T08:10:14.439Z,34.98
2016-07-28T08:11:14.431Z,35.5
2016-07-28T08:12:13.715Z,36.06
2016-07-28T08:13:13.720Z,36.43
2016-07-28T08:14:13.720Z,36.8
2016-07-28T08:15:14.456Z,37.1
2016-07-28T08:16:13.716Z,37.33
2016-07-28T08:17:14.452Z,37.43
2016-07-28T08:18:14.443Z,37.54
2016-07-28T08:19:14.464Z,37.95
2016-07-28T08:20:13.740Z,38.22
2016-07-28T08:21:14.460Z,38.51
2016-07-28T08:22:13.744Z,38.5
2016-07-28T08:23:14.468Z,38.48
2016-07-28T08:24:14.475Z,38.38
2016-07-28T08:25:14.469Z,37.95
2016-07-28T08:26:13.756Z,37.48
2016-07-28T08:27:14.480Z,37.01
2016-07-28T08:28:14.481Z,36.43
2016-07-28T08:29:14.489Z,35.71
2016-07-28T08:30:14.488Z,35.18
2016-07-28T08:31:13.048Z,34.7
2016-07-28T08:32:14.481Z,34.46
2016-07-28T08:33:14.484Z,34.32
2016-07-28T08:34:14.500Z,34.37
2016-07-28T08:35:14.507Z,34.38
2016-07-28T08:36:14.498Z,34.32
2016-07-28T08:37:13.784Z,34.33
2016-07-28T08:38:14.501Z,34.38
2016-07-28T08:39:13.793Z,34.41
2016-07-28T08:40:13.788Z,34.6
2016-07-28T08:41:13.793Z,34.75
2016-07-28T08:42:13.793Z,35.07
2016-07-28T08:44:13.081Z,35.38
2016-07-28T08:45:14.533Z,35.57
2016-07-28T08:46:14.521Z,35.93
2016-07-28T08:47:14.533Z,36.29
2016-07-28T08:48:14.536Z,36.57
2016-07-28T08:49:14.533Z,37.1
2016-07-28T08:50:14.536Z,37.44
2016-07-28T08:51:13.812Z,37.78
2016-07-28T08:52:14.541Z,38.14
2016-07-28T08:53:13.104Z,38.48
2016-07-28T08:54:14.541Z,38.51
2016-07-28T08:55:13.829Z,38.62
2016-07-28T08:56:13.833Z,38.72
2016-07-28T08:57:14.549Z,38.84
2016-07-28T08:59:14.561Z,38.73
2016-07-28T09:00:13.837Z,38.56
2016-07-28T09:01:14.549Z,38.28
2016-07-28T09:02:14.565Z,37.91
2016-07-28T09:03:14.573Z,37.45
2016-07-28T09:04:14.577Z,37
2016-07-28T09:05:13.856Z,36.48
2016-07-28T09:06:14.570Z,36.17
2016-07-28T09:07:14.585Z,35.69
2016-07-28T09:08:13.861Z,35.35
2016-07-28T09:09:13.146Z,35.04
2016-07-28T09:10:13.873Z,34.73
2016-07-28T09:11:14.593Z,34.6
2016-07-28T09:12:14.586Z,34.35
2016-07-28T09:14:14.597Z,34.03
2016-07-28T09:15:13.876Z,33.84
2016-07-28T09:16:13.889Z,33.66
2016-07-28T09:17:13.881Z,33.57
2016-07-28T09:18:14.606Z,33.5
2016-07-28T09:19:14.618Z,33.45
2016-07-28T09:20:14.613Z,33.44
2016-07-28T09:21:14.614Z,33.45
2016-07-28T09:22:14.622Z,33.44
2016-07-28T09:23:13.178Z,33.32
2016-07-28T09:24:13.902Z,33.22
2016-07-28T09:25:14.629Z,33.23
2016-07-28T09:26:13.913Z,33.2
2016-07-28T09:27:14.638Z,33.35
2016-07-28T09:28:13.914Z,33.54
2016-07-28T09:29:13.909Z,33.87
2016-07-28T09:30:13.926Z,34.09
2016-07-28T09:31:14.642Z,34.41
2016-07-28T09:32:14.647Z,34.71
2016-07-28T09:33:13.933Z,34.91
2016-07-28T09:34:13.210Z,35.16
2016-07-28T09:35:13.935Z,35.2
2016-07-28T09:36:13.937Z,35.25
2016-07-28T09:37:13.942Z,35.41
2016-07-28T09:38:14.659Z,35.75
2016-07-28T09:39:14.663Z,35.88
2016-07-28T09:40:13.947Z,36.01
2016-07-28T09:41:14.675Z,36.13
2016-07-28T09:42:14.674Z,36.11
2016-07-28T09:43:14.687Z,36.06
2016-07-28T09:44:13.962Z,35.87
2016-07-28T09:45:14.683Z,35.84
2016-07-28T09:46:14.695Z,35.61
2016-07-28T09:47:14.679Z,35.39
2016-07-28T09:48:13.971Z,35.25
2016-07-28T09:49:13.979Z,35.13
2016-07-28T09:50:14.698Z,35.19
2016-07-28T09:51:14.699Z,35.05
2016-07-28T09:52:13.991Z,34.97
2016-07-28T09:53:14.707Z,34.78
2016-07-28T09:54:13.983Z,34.47
2016-07-28T09:55:14.703Z,34.21
2016-07-28T09:56:14.711Z,33.79
2016-07-28T09:57:14.699Z,33.54
2016-07-28T09:58:14.175Z,33.28
2016-07-28T09:59:13.995Z,33.08
2016-07-28T10:00:14.723Z,32.94
2016-07-28T10:01:14.736Z,32.85
2016-07-28T10:02:14.004Z,32.81
2016-07-28T10:03:14.723Z,32.63
2016-07-28T10:04:14.736Z,32.59
2016-07-28T10:05:14.736Z,32.3
2016-07-28T10:06:14.735Z,32.35
2016-07-28T10:07:14.744Z,32.26
2016-07-28T10:08:14.739Z,32.17
2016-07-28T10:09:14.748Z,32.22
2016-07-28T10:10:14.751Z,32.08
2016-07-28T10:11:14.748Z,32.24
2016-07-28T10:12:14.035Z,32.17
2016-07-28T10:13:14.760Z,32.26
2016-07-28T10:14:14.047Z,32.23
2016-07-28T10:15:14.044Z,32.15
2016-07-28T10:16:14.051Z,31.98
2016-07-28T10:17:14.039Z,31.87
2016-07-28T10:18:13.331Z,31.79
2016-07-28T10:19:14.051Z,31.73
2016-07-28T10:20:13.339Z,31.7
2016-07-28T10:21:13.337Z,31.57
2016-07-28T10:22:14.056Z,31.64
2016-07-28T10:23:14.076Z,31.47
2016-07-28T10:24:14.796Z,31.62
2016-07-28T10:25:14.791Z,31.62
2016-07-28T10:26:14.100Z,31.63
2016-07-28T10:27:14.791Z,31.69
2016-07-28T10:28:14.800Z,31.77
2016-07-28T10:29:14.088Z,31.89
2016-07-28T10:30:14.808Z,31.82
2016-07-28T10:31:14.803Z,31.85
2016-07-28T10:33:14.092Z,31.57
2016-07-28T10:34:14.821Z,31.55
2016-07-28T10:35:14.813Z,31.44
2016-07-28T10:36:14.820Z,31.22
2016-07-28T10:37:14.813Z,31.11
2016-07-28T10:38:14.825Z,30.98
2016-07-28T10:39:14.827Z,30.78
2016-07-28T10:40:14.113Z,30.7
2016-07-28T10:41:14.844Z,30.49
2016-07-28T10:42:14.836Z,30.48
2016-07-28T10:43:14.840Z,30.26
2016-07-28T10:44:14.125Z,30.1
2016-07-28T10:45:14.129Z,30.05
2016-07-28T10:46:14.141Z,29.94
2016-07-28T10:47:14.867Z,29.94
2016-07-28T10:48:14.133Z,29.71
2016-07-28T10:49:14.861Z,29.55
2016-07-28T10:50:14.141Z,29.53
2016-07-28T10:51:14.144Z,29.4
2016-07-28T10:52:14.864Z,29.39
2016-07-28T10:53:14.156Z,29.35
2016-07-28T10:54:14.149Z,29.42
2016-07-28T10:55:14.869Z,29.49
2016-07-28T10:56:14.154Z,29.53
2016-07-28T10:57:14.885Z,29.58
2016-07-28T10:58:14.881Z,29.52
2016-07-28T10:59:14.878Z,29.59
2016-07-28T11:00:14.185Z,29.47
2016-07-28T11:01:14.890Z,29.4
2016-07-28T11:02:14.170Z,29.39
2016-07-28T11:03:14.170Z,29.35
2016-07-28T11:04:14.182Z,29.31
2016-07-28T11:05:14.906Z,29.27
2016-07-28T11:06:14.190Z,29.16
2016-07-28T11:07:14.186Z,29.16
2016-07-28T11:08:14.922Z,29.18
2016-07-28T11:09:14.197Z,29.2
2016-07-28T11:10:14.906Z,29.2
2016-07-28T11:11:14.205Z,29.16
2016-07-28T11:12:14.926Z,29.16
2016-07-28T11:13:14.934Z,29.21
2016-07-28T11:14:14.213Z,29.18
2016-07-28T11:15:14.210Z,28.94
2016-07-28T11:16:14.922Z,28.87
2016-07-28T11:17:14.218Z,28.86
2016-07-28T11:18:14.230Z,28.8
2016-07-28T11:19:14.937Z,28.84
2016-07-28T11:20:14.230Z,28.7
2016-07-28T11:41:30.039Z,30.78
2016-07-28T11:41:57.983Z,30.88
2016-07-28T11:42:58.699Z,30.92
2016-07-28T11:43:58.712Z,30.96
2016-07-28T11:44:58.699Z,31
2016-07-28T11:45:58.711Z,30.95
2016-07-28T11:46:58.716Z,30.95
2016-07-28T11:47:58.724Z,30.99
2016-07-28T11:48:58.715Z,30.96
2016-07-28T11:49:57.996Z,30.96
2016-07-28T11:50:58.736Z,31.05
2016-07-28T11:51:58.720Z,31.1
2016-07-28T11:52:58.732Z,30.93
2016-07-28T11:53:58.733Z,30.91
2016-07-28T11:54:58.744Z,30.93
2016-07-28T11:55:58.732Z,30.81
2016-07-28T11:56:57.300Z,30.76
2016-07-28T11:57:58.740Z,30.76
2016-07-28T11:58:58.029Z,30.78
2016-07-28T11:59:58.020Z,30.8
2016-07-28T12:00:58.756Z,30.73
2016-07-28T12:01:58.039Z,30.78
2016-07-28T12:02:58.747Z,30.76
2016-07-28T12:03:57.316Z,30.69
2016-07-28T12:04:58.049Z,30.51
2016-07-28T12:05:58.768Z,30.4
2016-07-28T12:06:58.768Z,30.29
2016-07-28T12:07:58.060Z,30.29
2016-07-28T12:08:58.052Z,30.35
2016-07-28T12:09:58.052Z,30.4
2016-07-28T12:10:58.788Z,30.38
2016-07-28T12:11:58.780Z,30.46
2016-07-28T12:12:58.788Z,30.4
2016-07-28T12:13:57.639Z,30.4
2016-07-28T12:14:58.067Z,30.43
2016-07-28T12:15:58.071Z,30.56
2016-07-28T12:16:58.076Z,30.55
2016-07-28T12:17:58.796Z,30.56
2016-07-28T12:18:58.795Z,30.54
2016-07-28T12:19:58.808Z,30.56
2016-07-28T12:20:58.087Z,30.48
2016-07-28T12:21:58.811Z,30.58
2016-07-28T12:22:57.668Z,30.61
2016-07-28T12:23:58.092Z,30.65
2016-07-28T12:24:58.820Z,30.62
2016-07-28T12:25:58.821Z,30.65
2016-07-28T12:26:58.832Z,30.67
2016-07-28T12:27:58.833Z,30.7
2016-07-28T12:28:57.675Z,30.61
2016-07-28T12:29:58.108Z,30.56
2016-07-28T12:30:58.107Z,30.48
2016-07-28T12:31:57.396Z,30.43
2016-07-28T12:32:58.115Z,30.36
2016-07-28T12:33:58.123Z,30.44
2016-07-28T12:34:58.124Z,30.43
2016-07-28T12:35:57.408Z,30.46
2016-07-28T12:36:58.135Z,30.49
2016-07-28T12:37:58.848Z,30.44
2016-07-28T12:38:58.136Z,30.36
2016-07-28T12:39:58.863Z,30.43
2016-07-28T12:40:58.136Z,30.39
2016-07-28T12:41:58.141Z,30.35
2016-07-28T12:42:58.871Z,30.35
2016-07-28T12:43:57.943Z,30.4
2016-07-28T12:44:58.148Z,30.36
2016-07-28T12:45:58.872Z,30.52
2016-07-28T12:46:58.928Z,30.55
2016-07-28T12:47:58.883Z,30.59
2016-07-28T12:48:58.888Z,30.51
2016-07-28T12:49:58.892Z,30.52
2016-07-28T12:50:58.885Z,30.52
2016-07-28T12:51:58.893Z,30.44
2016-07-28T12:52:58.899Z,30.39
2016-07-28T12:53:57.460Z,30.29
2016-07-28T12:54:57.460Z,30.24
2016-07-28T12:55:58.913Z,30.16
2016-07-28T12:56:58.918Z,30.13
2016-07-28T12:57:58.909Z,30.1
2016-07-28T12:59:58.199Z,30.16
2016-07-28T13:00:58.924Z,30.11
2016-07-28T13:01:58.200Z,30.11
2016-07-28T13:02:58.929Z,30.13
2016-07-28T13:03:58.928Z,30.2
2016-07-28T13:04:58.224Z,30.08
2016-07-28T13:05:58.933Z,29.99
2016-07-28T13:06:58.935Z,29.92
2016-07-28T13:07:58.213Z,29.99
2016-07-28T13:08:58.220Z,29.89
2016-07-28T13:09:58.220Z,29.95
2016-07-28T13:10:58.945Z,30.01
2016-07-28T13:11:58.228Z,30.11
2016-07-28T13:12:58.946Z,30.1
2016-07-28T13:13:57.517Z,30.11
2016-07-28T13:14:58.241Z,30.1
2016-07-28T13:15:58.241Z,30.16
2016-07-28T13:16:58.973Z,30.11
2016-07-28T13:17:58.969Z,30.06
2016-07-28T13:18:58.977Z,30.05
2016-07-28T13:19:58.253Z,30.08
2016-07-28T13:20:58.249Z,29.83
2016-07-28T13:21:58.978Z,29.89
2016-07-28T13:22:58.981Z,29.95
2016-07-28T13:23:58.978Z,29.95
2016-07-28T13:24:58.266Z,29.99
2016-07-28T13:25:58.271Z,29.99
2016-07-28T13:26:57.558Z,29.96
2016-07-28T13:27:58.994Z,29.84
2016-07-28T13:28:58.278Z,29.81
2016-07-28T13:29:58.994Z,29.68
2016-07-28T13:30:59.002Z,29.71
2016-07-28T13:31:59.007Z,29.69
2016-07-28T13:32:58.298Z,29.59
2016-07-28T13:33:58.298Z,29.52
2016-07-28T13:34:59.019Z,29.35
2016-07-28T13:35:58.312Z,29.4
2016-07-28T13:36:59.026Z,29.43
2016-07-28T13:37:59.022Z,29.37
2016-07-28T13:38:58.303Z,29.31
2016-07-28T13:39:58.311Z,29.39
2016-07-28T13:40:58.315Z,29.42
2016-07-28T13:41:58.311Z,29.58
2016-07-28T13:42:59.027Z,29.58